Station Historical Data
Daily Summary for August 3, 2012 Units:  English    Metric   Both
« Previous Day
Next Day »
Daily Weekly Monthly Yearly Custom
  High: Low: Average:
Temperature: 87.0 °F 72.5 °F 78.4 °F
Dew Point: 79.8 °F 70.1 °F 74.7 °F
Humidity: 92% 76% 89%
Wind Speed: 18.0mph 0.0mph 4mph
Wind Gust: 18.0mph - -
Wind- - SSE
Pressure: 29.91 in 29.81 in -
Precipitation: 0.48 in    
Historical Graphs
 
 
Tabular Data for August 3, 2012
Time Temperature Dew Point Pressure Wind Wind Speed Wind Gust Humidity Rainfall Rate (Hourly) Conditions
00:00 73.7 °F 71.2 °F 29.83 in SE 2.0 mph 6.0 mph 92% 0.00 in
00:05 73.7 °F 71.2 °F 29.83 in SSE 4.0 mph 6.0 mph 92% 0.00 in
00:10 73.7 °F 71.2 °F 29.84 in SSE 4.0 mph 4.0 mph 92% 0.00 in
00:15 73.5 °F 71.0 °F 29.84 in SE 2.0 mph 5.0 mph 92% 0.00 in
00:20 73.5 °F 71.0 °F 29.84 in SSE 3.0 mph 4.0 mph 92% 0.00 in
00:25 73.4 °F 70.9 °F 29.84 in SSE 2.0 mph 4.0 mph 92% 0.00 in
00:30 73.3 °F 70.8 °F 29.84 in SSW 1.0 mph 1.0 mph 92% 0.00 in
00:36 73.3 °F 70.8 °F 29.83 in SSE 2.0 mph 2.0 mph 92% 0.00 in
00:41 73.2 °F 70.7 °F 29.83 in SE 3.0 mph 4.0 mph 92% 0.00 in
00:46 73.1 °F 70.6 °F 29.83 in SE 3.0 mph 4.0 mph 92% 0.00 in
00:51 73.0 °F 70.5 °F 29.83 in SE 3.0 mph 4.0 mph 92% 0.00 in
00:56 73.1 °F 70.6 °F 29.83 in SSE 3.0 mph 4.0 mph 92% 0.00 in
01:01 73.0 °F 70.5 °F 29.83 in SSE 3.0 mph 4.0 mph 92% 0.00 in
01:06 72.8 °F 70.3 °F 29.83 in South 3.0 mph 4.0 mph 92% 0.00 in
01:11 72.8 °F 70.3 °F 29.83 in SSE 2.0 mph 5.0 mph 92% 0.00 in
01:16 72.8 °F 70.3 °F 29.83 in SE 3.0 mph 6.0 mph 92% 0.00 in
01:21 72.9 °F 70.4 °F 29.84 in ESE 3.0 mph 5.0 mph 92% 0.00 in
01:26 73.0 °F 70.5 °F 29.83 in SE 2.0 mph 3.0 mph 92% 0.00 in
01:31 72.9 °F 70.4 °F 29.83 in SE 3.0 mph 5.0 mph 92% 0.00 in
01:36 72.9 °F 70.4 °F 29.84 in ESE 2.0 mph 3.0 mph 92% 0.00 in
01:41 73.0 °F 70.5 °F 29.84 in SE 1.0 mph 2.0 mph 92% 0.00 in
01:46 73.0 °F 70.5 °F 29.84 in Calm   2.0 mph 92% 0.00 in
01:52 73.0 °F 70.5 °F 29.84 in ESE 1.0 mph 1.0 mph 92% 0.00 in
01:57 73.1 °F 70.6 °F 29.84 in East 1.0 mph 1.0 mph 92% 0.00 in
02:02 73.0 °F 70.5 °F 29.84 in Calm   1.0 mph 92% 0.00 in
02:07 73.0 °F 70.5 °F 29.84 in Calm     92% 0.00 in
02:12 72.9 °F 70.4 °F 29.83 in Calm     92% 0.00 in
02:17 72.9 °F 70.4 °F 29.83 in SE 1.0 mph 2.0 mph 92% 0.00 in
02:22 72.9 °F 70.4 °F 29.83 in SE 2.0 mph 2.0 mph 92% 0.00 in
02:27 72.9 °F 70.4 °F 29.82 in SE 2.0 mph 4.0 mph 92% 0.00 in
02:32 73.0 °F 70.5 °F 29.82 in SE 3.0 mph 3.0 mph 92% 0.00 in
02:37 73.0 °F 70.5 °F 29.82 in ESE 3.0 mph 3.0 mph 92% 0.00 in
02:42 73.0 °F 70.5 °F 29.82 in SSE 1.0 mph 3.0 mph 92% 0.00 in
02:47 73.1 °F 70.6 °F 29.82 in SE 1.0 mph 1.0 mph 92% 0.00 in
02:52 73.0 °F 70.5 °F 29.82 in Calm   1.0 mph 92% 0.00 in
02:57 73.0 °F 70.5 °F 29.82 in SSE 1.0 mph 1.0 mph 92% 0.00 in
03:02 73.0 °F 70.5 °F 29.82 in Calm   1.0 mph 92% 0.00 in
03:07 72.9 °F 70.4 °F 29.82 in Calm     92% 0.00 in
03:12 72.9 °F 70.4 °F 29.82 in Calm     92% 0.00 in
03:17 72.9 °F 70.4 °F 29.82 in East 3.0 mph 3.0 mph 92% 0.00 in
03:22 72.8 °F 70.3 °F 29.82 in ESE 4.0 mph 6.0 mph 92% 0.00 in
03:27 72.6 °F 70.2 °F 29.82 in SE 4.0 mph 7.0 mph 92% 0.00 in
03:32 72.6 °F 70.2 °F 29.82 in SE 5.0 mph 6.0 mph 92% 0.00 in
03:37 72.5 °F 70.1 °F 29.81 in East 4.0 mph 5.0 mph 92% 0.00 in
03:42 72.5 °F 70.1 °F 29.81 in SE 3.0 mph 5.0 mph 92% 0.00 in
03:48 72.5 °F 70.1 °F 29.81 in ESE 5.0 mph 7.0 mph 92% 0.00 in
03:53 72.5 °F 70.1 °F 29.81 in SE 4.0 mph 5.0 mph 92% 0.00 in
03:58 72.5 °F 70.1 °F 29.81 in SE 4.0 mph 6.0 mph 92% 0.00 in
04:03 72.5 °F 70.1 °F 29.81 in SE 4.0 mph 5.0 mph 92% 0.00 in
04:08 72.5 °F 70.1 °F 29.82 in ESE 4.0 mph 5.0 mph 92% 0.00 in
04:13 72.6 °F 70.2 °F 29.82 in SE 2.0 mph 5.0 mph 92% 0.00 in
04:18 72.7 °F 70.2 °F 29.83 in SE 2.0 mph 4.0 mph 92% 0.00 in
04:23 72.8 °F 70.3 °F 29.83 in SE 1.0 mph 2.0 mph 92% 0.00 in
04:28 72.9 °F 70.4 °F 29.82 in SE 2.0 mph 2.0 mph 92% 0.00 in
04:33 72.9 °F 70.4 °F 29.82 in SE 2.0 mph 4.0 mph 92% 0.00 in
04:38 73.1 °F 70.6 °F 29.82 in SE 4.0 mph 4.0 mph 92% 0.00 in
04:43 73.1 °F 70.6 °F 29.82 in SSE 2.0 mph 3.0 mph 92% 0.00 in
04:48 73.2 °F 70.7 °F 29.82 in SE 2.0 mph 3.0 mph 92% 0.00 in
04:53 73.3 °F 70.8 °F 29.82 in ESE 3.0 mph 4.0 mph 92% 0.00 in
04:58 73.3 °F 70.8 °F 29.83 in ESE 2.0 mph 5.0 mph 92% 0.00 in
05:03 73.3 °F 70.8 °F 29.83 in ESE 4.0 mph 5.0 mph 92% 0.00 in
05:08 73.3 °F 70.8 °F 29.83 in ESE 2.0 mph 5.0 mph 92% 0.00 in
05:13 73.3 °F 70.8 °F 29.83 in SE 1.0 mph 2.0 mph 92% 0.00 in
05:18 73.3 °F 70.8 °F 29.83 in SSE 2.0 mph 3.0 mph 92% 0.00 in
05:23 73.3 °F 70.8 °F 29.83 in SE 3.0 mph 4.0 mph 92% 0.00 in
05:28 73.3 °F 70.8 °F 29.83 in ESE 4.0 mph 5.0 mph 92% 0.00 in
05:33 73.2 °F 70.7 °F 29.83 in ESE 4.0 mph 6.0 mph 92% 0.00 in
05:38 73.2 °F 70.7 °F 29.83 in ESE 5.0 mph 6.0 mph 92% 0.00 in
05:43 73.1 °F 70.6 °F 29.83 in SE 3.0 mph 5.0 mph 92% 0.00 in
05:48 73.2 °F 70.7 °F 29.83 in ESE 6.0 mph 7.0 mph 92% 0.00 in
05:53 73.3 °F 70.8 °F 29.82 in SE 6.0 mph 7.0 mph 92% 0.00 in
05:58 73.5 °F 71.0 °F 29.83 in ESE 4.0 mph 7.0 mph 92% 0.00 in
06:03 73.6 °F 71.1 °F 29.83 in SSE 3.0 mph 5.0 mph 92% 0.00 in
06:08 73.7 °F 71.2 °F 29.83 in SSE 5.0 mph 8.0 mph 92% 0.00 in
06:13 73.8 °F 71.3 °F 29.83 in SE 4.0 mph 8.0 mph 92% 0.00 in
06:18 73.9 °F 71.4 °F 29.83 in SSE 5.0 mph 7.0 mph 92% 0.00 in
06:23 73.9 °F 71.4 °F 29.83 in SE 3.0 mph 6.0 mph 92% 0.00 in
06:28 74.0 °F 71.5 °F 29.83 in SSE 5.0 mph 7.0 mph 92% 0.00 in
06:33 74.0 °F 71.5 °F 29.84 in SE 3.0 mph 6.0 mph 92% 0.00 in
06:38 74.1 °F 71.6 °F 29.84 in SSE 2.0 mph 5.0 mph 92% 0.00 in
06:43 74.1 °F 71.6 °F 29.84 in South 2.0 mph 5.0 mph 92% 0.00 in
06:49 74.2 °F 71.7 °F 29.84 in SSE 5.0 mph 7.0 mph 92% 0.00 in
06:54 74.2 °F 71.7 °F 29.85 in SSE 1.0 mph 4.0 mph 92% 0.00 in
06:59 74.3 °F 71.8 °F 29.85 in SSE 3.0 mph 5.0 mph 92% 0.00 in
07:04 74.3 °F 71.8 °F 29.86 in South 4.0 mph 5.0 mph 92% 0.00 in
07:10 74.3 °F 71.8 °F 29.86 in SW 1.0 mph 3.0 mph 92% 0.00 in
07:15 74.4 °F 71.9 °F 29.86 in SSW 4.0 mph 4.0 mph 92% 0.00 in
07:20 74.4 °F 71.9 °F 29.86 in SSW 3.0 mph 5.0 mph 92% 0.00 in
07:25 74.4 °F 71.9 °F 29.87 in South 2.0 mph 3.0 mph 92% 0.00 in
07:30 74.4 °F 71.9 °F 29.87 in South 2.0 mph 4.0 mph 92% 0.00 in
07:35 74.4 °F 71.9 °F 29.87 in SSE 2.0 mph 3.0 mph 92% 0.00 in
07:40 74.4 °F 71.9 °F 29.87 in SSE 3.0 mph 4.0 mph 92% 0.00 in
07:46 74.6 °F 72.1 °F 29.87 in SSE 3.0 mph 6.0 mph 92% 0.00 in
07:51 74.6 °F 72.1 °F 29.87 in SSW 5.0 mph 7.0 mph 92% 0.00 in
07:56 74.7 °F 72.2 °F 29.88 in SSW 3.0 mph 5.0 mph 92% 0.00 in
08:01 74.7 °F 72.2 °F 29.88 in SSE 4.0 mph 5.0 mph 92% 0.00 in
08:06 74.8 °F 72.3 °F 29.87 in SSW 3.0 mph 6.0 mph 92% 0.00 in
08:11 74.8 °F 72.3 °F 29.88 in South 4.0 mph 6.0 mph 92% 0.00 in
08:16 74.9 °F 72.4 °F 29.88 in South 3.0 mph 4.0 mph 92% 0.00 in
08:21 74.9 °F 72.4 °F 29.89 in South 2.0 mph 6.0 mph 92% 0.00 in
08:26 74.9 °F 72.4 °F 29.89 in South 2.0 mph 5.0 mph 92% 0.00 in
08:32 74.9 °F 72.4 °F 29.89 in SSW 4.0 mph 8.0 mph 92% 0.00 in
08:37 74.9 °F 72.4 °F 29.89 in South 3.0 mph 7.0 mph 92% 0.00 in
08:42 75.0 °F 72.5 °F 29.89 in SSE 6.0 mph 7.0 mph 92% 0.00 in
08:47 75.0 °F 72.5 °F 29.88 in South 5.0 mph 7.0 mph 92% 0.00 in
08:52 75.1 °F 72.6 °F 29.87 in SSE 4.0 mph 9.0 mph 92% 0.00 in
08:57 75.3 °F 72.8 °F 29.87 in SSW 4.0 mph 7.0 mph 92% 0.00 in
09:02 75.4 °F 72.9 °F 29.86 in SSE 8.0 mph 11.0 mph 92% 0.00 in
09:07 75.5 °F 73.0 °F 29.85 in SSW 9.0 mph 12.0 mph 92% 0.00 in
09:12 75.6 °F 73.1 °F 29.84 in SE 9.0 mph 9.0 mph 92% 0.00 in
09:17 75.6 °F 73.1 °F 29.84 in SSE 8.0 mph 8.0 mph 92% 0.00 in
09:22 75.7 °F 73.2 °F 29.84 in SSE 3.0 mph 10.0 mph 92% 0.00 in
09:27 75.7 °F 73.2 °F 29.84 in SE 5.0 mph 9.0 mph 92% 0.00 in
09:32 75.7 °F 73.2 °F 29.84 in SSE 7.0 mph 9.0 mph 92% 0.00 in
09:37 75.7 °F 73.2 °F 29.84 in SSE 3.0 mph 9.0 mph 92% 0.00 in
09:42 75.8 °F 73.3 °F 29.83 in South 4.0 mph 8.0 mph 92% 0.00 in
09:47 75.8 °F 73.3 °F 29.83 in SE 3.0 mph 7.0 mph 92% 0.00 in
09:52 75.8 °F 73.3 °F 29.83 in SSE 7.0 mph 7.0 mph 92% 0.00 in
09:57 75.9 °F 73.4 °F 29.83 in South 5.0 mph 7.0 mph 92% 0.00 in
10:02 76.1 °F 73.6 °F 29.83 in SSE 4.0 mph 6.0 mph 92% 0.00 in
10:08 76.2 °F 73.7 °F 29.83 in SSE 6.0 mph 8.0 mph 92% 0.00 in
10:13 76.3 °F 73.8 °F 29.84 in SE 8.0 mph 8.0 mph 92% 0.00 in
10:18 76.5 °F 74.0 °F 29.85 in SE 4.0 mph 7.0 mph 92% 0.00 in
10:23 76.6 °F 74.1 °F 29.85 in SSE 4.0 mph 8.0 mph 92% 0.00 in
10:28 76.7 °F 74.2 °F 29.86 in South 4.0 mph 8.0 mph 92% 0.00 in
10:33 77.0 °F 74.5 °F 29.86 in South 3.0 mph 6.0 mph 92% 0.00 in
10:38 77.2 °F 74.7 °F 29.87 in South 4.0 mph 8.0 mph 92% 0.00 in
10:43 77.4 °F 74.9 °F 29.87 in SSE 7.0 mph 7.0 mph 92% 0.00 in
10:48 77.7 °F 75.2 °F 29.88 in SW 8.0 mph 8.0 mph 92% 0.00 in
10:53 77.8 °F 75.3 °F 29.88 in SW 3.0 mph 10.0 mph 92% 0.00 in
10:58 77.9 °F 75.4 °F 29.88 in SW 3.0 mph 6.0 mph 92% 0.00 in
11:03 77.9 °F 75.4 °F 29.88 in SSW 3.0 mph 6.0 mph 92% 0.00 in
11:08 77.9 °F 75.4 °F 29.88 in SSW 6.0 mph 6.0 mph 92% 0.00 in
11:13 78.0 °F 75.5 °F 29.88 in South 5.0 mph 8.0 mph 92% 0.00 in
11:18 78.1 °F 75.3 °F 29.88 in SW 5.0 mph 9.0 mph 91% 0.00 in
11:23 78.1 °F 75.3 °F 29.89 in South 3.0 mph 5.0 mph 91% 0.00 in
11:28 78.2 °F 75.4 °F 29.89 in South 5.0 mph 6.0 mph 91% 0.00 in
11:33 78.2 °F 75.4 °F 29.89 in SSW 3.0 mph 7.0 mph 91% 0.00 in
11:38 78.2 °F 75.4 °F 29.89 in South 4.0 mph 7.0 mph 91% 0.00 in
11:43 78.3 °F 75.5 °F 29.89 in SSW 4.0 mph 8.0 mph 91% 0.00 in
11:48 78.5 °F 75.7 °F 29.89 in South 5.0 mph 7.0 mph 91% 0.00 in
11:53 78.5 °F 75.7 °F 29.89 in SSW 5.0 mph 7.0 mph 91% 0.00 in
11:58 78.7 °F 75.9 °F 29.89 in SSW 5.0 mph 7.0 mph 91% 0.00 in
12:03 78.9 °F 76.1 °F 29.89 in South 3.0 mph 4.0 mph 91% 0.00 in
12:08 79.2 °F 76.3 °F 29.90 in SSW 9.0 mph 9.0 mph 91% 0.00 in
12:13 79.4 °F 76.6 °F 29.90 in South 5.0 mph 9.0 mph 91% 0.00 in
12:18 79.6 °F 76.4 °F 29.90 in SSW 7.0 mph 9.0 mph 90% 0.00 in
12:23 79.9 °F 76.7 °F 29.90 in SSW 6.0 mph 9.0 mph 90% 0.00 in
12:28 80.1 °F 76.9 °F 29.90 in SW 4.0 mph 7.0 mph 90% 0.00 in
12:33 80.5 °F 77.3 °F 29.90 in SSW 3.0 mph 7.0 mph 90% 0.00 in
12:38 80.8 °F 77.6 °F 29.90 in SSW 4.0 mph 7.0 mph 90% 0.00 in
12:43 81.1 °F 77.6 °F 29.90 in South 6.0 mph 10.0 mph 89% 0.00 in
12:48 81.6 °F 77.7 °F 29.89 in South 5.0 mph 9.0 mph 88% 0.00 in
12:53 81.8 °F 77.6 °F 29.89 in South 9.0 mph 11.0 mph 87% 0.00 in
12:58 81.6 °F 77.4 °F 29.90 in South 6.0 mph 12.0 mph 87% 0.00 in
13:03 81.5 °F 77.3 °F 29.89 in SW 7.0 mph 9.0 mph 87% 0.00 in
13:08 81.4 °F 77.2 °F 29.90 in SE 7.0 mph 7.0 mph 87% 0.00 in
13:13 81.2 °F 77.0 °F 29.89 in South 6.0 mph 9.0 mph 87% 0.00 in
13:18 81.1 °F 76.9 °F 29.89 in SSW 5.0 mph 7.0 mph 87% 0.00 in
13:23 81.0 °F 77.1 °F 29.89 in SSE 4.0 mph 7.0 mph 88% 0.00 in
13:28 81.1 °F 77.6 °F 29.89 in SSE 5.0 mph 9.0 mph 89% 0.00 in
13:34 81.0 °F 77.1 °F 29.89 in SSE 4.0 mph 6.0 mph 88% 0.00 in
13:39 81.1 °F 77.6 °F 29.89 in WSW 4.0 mph 7.0 mph 89% 0.00 in
13:44 81.4 °F 77.5 °F 29.89 in SSW 1.0 mph 7.0 mph 88% 0.00 in
13:49 81.7 °F 77.8 °F 29.89 in SSE 4.0 mph 4.0 mph 88% 0.00 in
13:54 82.1 °F 78.2 °F 29.88 in SSW 5.0 mph 9.0 mph 88% 0.00 in
13:59 82.2 °F 77.6 °F 29.88 in SE 10.0 mph 13.0 mph 86% 0.00 in
14:04 82.2 °F 77.9 °F 29.88 in South 6.0 mph 8.0 mph 87% 0.00 in
14:09 82.4 °F 78.1 °F 29.88 in SSE 4.0 mph 7.0 mph 87% 0.00 in
14:14 82.5 °F 78.2 °F 29.88 in SSE 7.0 mph 7.0 mph 87% 0.00 in
14:19 82.8 °F 78.2 °F 29.88 in SSE 8.0 mph 9.0 mph 86% 0.00 in
14:24 82.9 °F 78.3 °F 29.88 in SSE 6.0 mph 11.0 mph 86% 0.00 in
14:29 82.6 °F 77.6 °F 29.88 in SSE 7.0 mph 11.0 mph 85% 0.00 in
14:34 82.5 °F 77.9 °F 29.88 in SW 6.0 mph 9.0 mph 86% 0.00 in
14:39 82.4 °F 77.8 °F 29.87 in SW 5.0 mph 9.0 mph 86% 0.00 in
14:44 82.5 °F 78.2 °F 29.88 in SSE 5.0 mph 7.0 mph 87% 0.00 in
14:49 82.6 °F 78.3 °F 29.88 in SE 4.0 mph 9.0 mph 87% 0.00 in
14:54 83.0 °F 79.1 °F 29.88 in SE 9.0 mph 9.0 mph 88% 0.00 in
14:59 83.4 °F 78.8 °F 29.88 in SSE 3.0 mph 7.0 mph 86% 0.00 in
15:04 83.4 °F 78.1 °F 29.88 in SW 6.0 mph 9.0 mph 84% 0.00 in
15:09 83.3 °F 78.3 °F 29.88 in South 4.0 mph 8.0 mph 85% 0.00 in
15:14 83.3 °F 77.6 °F 29.87 in South 3.0 mph 6.0 mph 83% 0.00 in
15:19 83.6 °F 79.0 °F 29.87 in South 2.0 mph 7.0 mph 86% 0.00 in
15:24 83.7 °F 78.3 °F 29.86 in SE 4.0 mph 7.0 mph 84% 0.00 in
15:29 84.1 °F 79.1 °F 29.86 in SSE 5.0 mph 7.0 mph 85% 0.00 in
15:34 84.5 °F 78.8 °F 29.86 in SSE 1.0 mph 5.0 mph 83% 0.00 in
15:39 84.8 °F 79.1 °F 29.86 in SSE 7.0 mph 11.0 mph 83% 0.00 in
15:44 84.7 °F 77.8 °F 29.85 in SW 5.0 mph 7.0 mph 80% 0.00 in
15:49 84.9 °F 78.0 °F 29.85 in SSE 6.0 mph 7.0 mph 80% 0.00 in
15:54 85.3 °F 78.4 °F 29.85 in SE 4.0 mph 9.0 mph 80% 0.00 in
15:59 85.2 °F 77.9 °F 29.85 in SE 3.0 mph 9.0 mph 79% 0.00 in
16:04 85.3 °F 77.3 °F 29.85 in SW 10.0 mph 10.0 mph 77% 0.00 in
16:09 85.3 °F 78.1 °F 29.84 in WSW 3.0 mph 6.0 mph 79% 0.00 in
16:14 85.3 °F 78.4 °F 29.84 in SE 4.0 mph 10.0 mph 80% 0.00 in
16:19 85.4 °F 78.5 °F 29.84 in SW 5.0 mph 7.0 mph 80% 0.00 in
16:24 85.4 °F 78.5 °F 29.84 in SW 5.0 mph 7.0 mph 80% 0.00 in
16:30 85.9 °F 79.0 °F 29.84 in South 4.0 mph 6.0 mph 80% 0.00 in
16:35 86.4 °F 78.3 °F 29.84 in SSE 2.0 mph 5.0 mph 77% 0.00 in
16:40 86.6 °F 78.9 °F 29.84 in SE 5.0 mph 7.0 mph 78% 0.00 in
16:45 86.5 °F 78.4 °F 29.84 in SSW 2.0 mph 7.0 mph 77% 0.00 in
16:50 86.2 °F 78.2 °F 29.84 in SSE 9.0 mph 10.0 mph 77% 0.00 in
16:55 85.8 °F 78.2 °F 29.84 in SW 5.0 mph 8.0 mph 78% 0.00 in
17:00 85.9 °F 77.9 °F 29.84 in SSW 4.0 mph 8.0 mph 77% 0.00 in
17:05 86.3 °F 78.6 °F 29.84 in SSW 4.0 mph 8.0 mph 78% 0.00 in
17:10 86.7 °F 78.6 °F 29.84 in SW 5.0 mph 7.0 mph 77% 0.00 in
17:15 87.0 °F 78.5 °F 29.84 in SSE 5.0 mph 8.0 mph 76% 0.00 in
17:20 86.6 °F 78.9 °F 29.84 in South 6.0 mph 8.0 mph 78% 0.00 in
17:25 86.5 °F 78.8 °F 29.84 in SSE 2.0 mph 7.0 mph 78% 0.00 in
17:30 86.5 °F 78.8 °F 29.84 in SSE 6.0 mph 9.0 mph 78% 0.00 in
17:35 86.0 °F 78.7 °F 29.84 in SE 10.0 mph 13.0 mph 79% 0.00 in
17:40 85.7 °F 78.4 °F 29.85 in SE 8.0 mph 13.0 mph 79% 0.00 in
17:45 85.9 °F 79.0 °F 29.84 in SE 7.0 mph 9.0 mph 80% 0.00 in
17:50 85.9 °F 79.0 °F 29.85 in SSE 6.0 mph 7.0 mph 80% 0.00 in
17:55 85.6 °F 78.7 °F 29.85 in SE 6.0 mph 9.0 mph 80% 0.00 in
18:00 85.7 °F 79.2 °F 29.84 in SE 5.0 mph 9.0 mph 81% 0.00 in
18:05 85.9 °F 79.8 °F 29.84 in SE 4.0 mph 6.0 mph 82% 0.00 in
18:10 86.1 °F 79.2 °F 29.84 in SSE 7.0 mph 10.0 mph 80% 0.00 in
18:15 85.9 °F 79.4 °F 29.84 in SE 6.0 mph 9.0 mph 81% 0.00 in
18:20 85.4 °F 78.5 °F 29.84 in SSE 7.0 mph 11.0 mph 80% 0.00 in
18:25 85.5 °F 78.6 °F 29.84 in South 5.0 mph 9.0 mph 80% 0.00 in
18:30 85.9 °F 78.6 °F 29.84 in SSE 7.0 mph 10.0 mph 79% 0.00 in
18:35 85.8 °F 79.3 °F 29.84 in SSE 5.0 mph 9.0 mph 81% 0.00 in
18:40 86.1 °F 79.2 °F 29.84 in ESE 5.0 mph 8.0 mph 80% 0.00 in
18:45 86.0 °F 78.7 °F 29.84 in SSE 5.0 mph 9.0 mph 79% 0.00 in
18:50 85.8 °F 78.5 °F 29.84 in SSE 8.0 mph 9.0 mph 79% 0.00 in
18:55 85.4 °F 78.5 °F 29.84 in SSE 6.0 mph 10.0 mph 80% 0.00 in
19:00 85.4 °F 78.9 °F 29.84 in SE 7.0 mph 9.0 mph 81% 0.00 in
19:05 85.7 °F 78.8 °F 29.83 in SSE 6.0 mph 8.0 mph 80% 0.00 in
19:10 85.6 °F 78.7 °F 29.83 in SE 6.0 mph 10.0 mph 80% 0.00 in
19:15 85.3 °F 78.4 °F 29.84 in SSE 5.0 mph 8.0 mph 80% 0.00 in
19:20 85.2 °F 78.7 °F 29.84 in SE 9.0 mph 9.0 mph 81% 0.00 in
19:25 85.1 °F 78.6 °F 29.84 in SE 7.0 mph 10.0 mph 81% 0.00 in
19:30 84.8 °F 78.3 °F 29.84 in South 6.0 mph 7.0 mph 81% 0.00 in
19:35 84.8 °F 78.7 °F 29.83 in South 2.0 mph 5.0 mph 82% 0.00 in
19:40 84.8 °F 78.7 °F 29.83 in South 2.0 mph 5.0 mph 82% 0.00 in
19:45 85.0 °F 78.9 °F 29.83 in SSE 1.0 mph 5.0 mph 82% 0.00 in
19:50 85.0 °F 78.5 °F 29.83 in SSE 5.0 mph 7.0 mph 81% 0.00 in
19:56 85.0 °F 78.5 °F 29.83 in SSE 3.0 mph 5.0 mph 81% 0.00 in
20:01 84.7 °F 78.2 °F 29.84 in SSE 7.0 mph 7.0 mph 81% 0.00 in
20:06 84.2 °F 78.5 °F 29.84 in SE 5.0 mph 5.0 mph 83% 0.00 in
20:11 83.8 °F 78.1 °F 29.84 in SSE 4.0 mph 6.0 mph 83% 0.00 in
20:16 83.6 °F 78.3 °F 29.84 in SE 2.0 mph 5.0 mph 84% 0.00 in
20:21 83.2 °F 78.2 °F 29.84 in SSE 2.0 mph 3.0 mph 85% 0.00 in
20:26 82.9 °F 77.9 °F 29.85 in SE 2.0 mph 3.0 mph 85% 0.00 in
20:31 82.6 °F 78.0 °F 29.85 in SE 2.0 mph 4.0 mph 86% 0.00 in
20:36 82.4 °F 77.8 °F 29.85 in SE 4.0 mph 4.0 mph 86% 0.00 in
20:41 82.2 °F 77.9 °F 29.86 in SE 3.0 mph 5.0 mph 87% 0.00 in
20:46 82.0 °F 77.8 °F 29.86 in SE 2.0 mph 4.0 mph 87% 0.00 in
20:51 81.9 °F 77.7 °F 29.86 in SE 3.0 mph 4.0 mph 87% 0.00 in
20:56 81.8 °F 77.9 °F 29.86 in SE 3.0 mph 4.0 mph 88% 0.00 in
21:01 81.7 °F 77.8 °F 29.87 in SE 3.0 mph 5.0 mph 88% 0.00 in
21:06 81.7 °F 77.8 °F 29.86 in SE 4.0 mph 4.0 mph 88% 0.00 in
21:11 81.7 °F 77.8 °F 29.86 in SE 5.0 mph 6.0 mph 88% 0.00 in
21:16 81.7 °F 77.8 °F 29.87 in ESE 6.0 mph 8.0 mph 88% 0.00 in
21:22 81.7 °F 77.8 °F 29.87 in SE 4.0 mph 6.0 mph 88% 0.00 in
21:27 81.7 °F 77.8 °F 29.88 in SE 4.0 mph 5.0 mph 88% 0.00 in
21:32 81.6 °F 77.7 °F 29.88 in SE 2.0 mph 4.0 mph 88% 0.00 in
21:37 81.5 °F 77.6 °F 29.88 in SSE 4.0 mph 4.0 mph 88% 0.00 in
21:42 81.4 °F 77.5 °F 29.88 in SE 2.0 mph 4.0 mph 88% 0.00 in
21:47 81.3 °F 77.4 °F 29.89 in SSW 1.0 mph 2.0 mph 88% 0.00 in
21:52 81.2 °F 77.3 °F 29.88 in ESE 4.0 mph 5.0 mph 88% 0.00 in
21:57 81.2 °F 77.7 °F 29.88 in SSE 5.0 mph 8.0 mph 89% 0.00 in
22:02 81.3 °F 77.8 °F 29.89 in SSE 2.0 mph 6.0 mph 89% 0.00 in
22:07 81.1 °F 77.6 °F 29.90 in SSE 6.0 mph 6.0 mph 89% 1.11 in
22:12 80.1 °F 76.9 °F 29.90 in SSE 18.0 mph 18.0 mph 90% 3.02 in
22:17 78.2 °F 75.0 °F 29.89 in SSE 10.0 mph 12.0 mph 90% 0.55 in
22:22 77.4 °F 73.9 °F 29.90 in South 4.0 mph 12.0 mph 89% 0.11 in
22:27 76.7 °F 73.2 °F 29.90 in SE 4.0 mph 6.0 mph 89% 0.06 in
22:32 76.4 °F 73.2 °F 29.90 in NNE 2.0 mph 3.0 mph 90% 0.04 in
22:37 75.9 °F 72.8 °F 29.91 in NNE 2.0 mph 2.0 mph 90% 0.00 in
22:42 75.5 °F 72.7 °F 29.91 in NE 1.0 mph 3.0 mph 91% 0.00 in
22:47 75.4 °F 72.6 °F 29.90 in East 2.0 mph 3.0 mph 91% 0.00 in
22:52 75.5 °F 73.0 °F 29.90 in ESE 2.0 mph 2.0 mph 92% 0.00 in
22:57 75.6 °F 73.1 °F 29.90 in SE 2.0 mph 4.0 mph 92% 0.00 in
23:02 75.8 °F 73.3 °F 29.90 in ESE 1.0 mph 2.0 mph 92% 0.00 in
23:07 75.9 °F 73.4 °F 29.90 in SW 1.0 mph 1.0 mph 92% 0.00 in
23:12 75.9 °F 73.4 °F 29.90 in Calm   1.0 mph 92% 0.00 in
23:17 76.0 °F 73.5 °F 29.90 in South 1.0 mph 1.0 mph 92% 0.00 in
23:22 76.1 °F 73.6 °F 29.90 in SE 2.0 mph 2.0 mph 92% 0.00 in
23:27 76.6 °F 74.1 °F 29.90 in South 3.0 mph 5.0 mph 92% 0.00 in
23:32 77.0 °F 74.5 °F 29.90 in SE 3.0 mph 4.0 mph 92% 0.00 in
23:37 77.3 °F 74.8 °F 29.90 in SSE 3.0 mph 5.0 mph 92% 0.00 in
23:42 77.4 °F 74.9 °F 29.90 in SE 3.0 mph 5.0 mph 92% 0.00 in
23:47 77.5 °F 75.0 °F 29.90 in SSW 1.0 mph 7.0 mph 92% 0.00 in
23:52 77.7 °F 75.2 °F 29.90 in South 2.0 mph 4.0 mph 92% 0.00 in
23:57 77.7 °F 75.2 °F 29.90 in SW 2.0 mph 4.0 mph 92% 0.00 in
Compliments of Weather Underground